createdAt,value
2022-09-01T00:02:09.419Z,6.40
2022-09-01T00:04:41.825Z,4.50
2022-09-01T00:07:17.823Z,5.50
2022-09-01T00:09:52.415Z,6.00
2022-09-01T00:12:26.175Z,4.90
2022-09-01T00:14:59.892Z,5.80
2022-09-01T00:17:34.285Z,5.00
2022-09-01T00:20:12.093Z,5.60
2022-09-01T00:22:45.588Z,6.30
2022-09-01T00:25:20.296Z,7.60
2022-09-01T00:27:55.488Z,6.60
2022-09-01T00:30:29.452Z,7.50
2022-09-01T00:33:04.350Z,5.80
2022-09-01T00:35:37.504Z,5.50
2022-09-01T00:38:10.355Z,6.10
2022-09-01T00:40:42.919Z,5.60
2022-09-01T00:43:19.110Z,6.20
2022-09-01T00:45:52.593Z,5.80
2022-09-01T00:48:26.231Z,6.90
2022-09-01T00:50:59.391Z,5.00
2022-09-01T00:53:32.455Z,5.30
2022-09-01T00:56:06.109Z,4.30
2022-09-01T00:58:40.433Z,4.90
2022-09-01T01:01:13.599Z,6.90
2022-09-01T01:03:49.013Z,4.80
2022-09-01T01:06:30.710Z,3.80
2022-09-01T01:09:06.220Z,4.40
2022-09-01T01:11:40.132Z,5.30
2022-09-01T01:14:12.443Z,6.00
2022-09-01T01:16:48.040Z,5.30
2022-09-01T01:19:44.238Z,5.20
2022-09-01T01:22:39.422Z,6.10
2022-09-01T01:25:14.322Z,6.40
2022-09-01T01:27:47.354Z,5.80
2022-09-01T01:30:20.937Z,8.20
2022-09-01T01:32:56.968Z,6.40
2022-09-01T01:35:31.428Z,6.00
2022-09-01T01:38:08.122Z,6.90
2022-09-01T01:40:43.083Z,5.70
2022-09-01T01:43:22.332Z,5.60
2022-09-01T01:45:59.157Z,7.00
2022-09-01T01:48:35.333Z,6.70
2022-09-01T01:51:08.986Z,5.30
2022-09-01T01:53:41.876Z,8.00
2022-09-01T01:56:14.016Z,6.50
2022-09-01T01:58:49.380Z,5.20
2022-09-01T02:01:25.389Z,4.40
2022-09-01T02:03:59.202Z,7.50
2022-09-01T02:06:36.997Z,6.00
2022-09-01T02:09:10.281Z,4.50
2022-09-01T02:11:43.318Z,5.60
2022-09-01T02:14:20.648Z,5.10
2022-09-01T02:16:56.195Z,5.60
2022-09-01T02:19:29.987Z,6.90
2022-09-01T02:22:04.113Z,5.20
2022-09-01T02:24:38.374Z,4.60
2022-09-01T02:27:15.784Z,4.80
2022-09-01T02:29:51.530Z,4.20
2022-09-01T02:32:24.574Z,4.10
2022-09-01T02:35:03.344Z,4.00
2022-09-01T02:37:38.723Z,4.10
2022-09-01T02:40:13.257Z,3.50
2022-09-01T02:42:48.208Z,4.20
2022-09-01T02:45:21.053Z,4.20
2022-09-01T02:47:59.257Z,7.40
2022-09-01T02:50:33.845Z,3.60
2022-09-01T02:53:09.864Z,3.70
2022-09-01T02:55:43.881Z,4.50
2022-09-01T02:58:20.978Z,5.30
2022-09-01T03:00:59.644Z,3.80
2022-09-01T03:03:34.011Z,3.40
2022-09-01T03:06:08.520Z,4.50
2022-09-01T03:08:43.096Z,5.90
2022-09-01T03:11:16.859Z,7.00
2022-09-01T03:13:49.729Z,3.40
2022-09-01T03:16:24.377Z,4.90
2022-09-01T03:18:56.731Z,5.50
2022-09-01T03:21:32.150Z,3.80
2022-09-01T03:24:06.387Z,6.10
2022-09-01T03:26:42.337Z,5.10
2022-09-01T03:29:17.082Z,3.90
2022-09-01T03:31:50.359Z,4.70
2022-09-01T03:34:24.758Z,4.20
2022-09-01T03:36:57.478Z,5.80
2022-09-01T03:39:30.527Z,4.50
2022-09-01T03:42:11.903Z,5.10
2022-09-01T03:44:47.893Z,4.20
2022-09-01T03:47:22.015Z,5.10
2022-09-01T03:49:57.750Z,4.90
2022-09-01T03:52:30.269Z,4.70
2022-09-01T03:55:04.552Z,4.60
2022-09-01T03:57:37.613Z,4.60
2022-09-01T04:00:20.791Z,5.60
2022-09-01T04:02:57.665Z,4.90
2022-09-01T04:05:34.051Z,6.70
2022-09-01T04:08:08.390Z,7.00
2022-09-01T04:10:54.264Z,4.00
2022-09-01T04:13:31.312Z,4.20
2022-09-01T04:29:55.814Z,4.80
2022-09-01T04:32:33.887Z,6.20
2022-09-01T04:35:55.298Z,6.90
2022-09-01T04:38:56.236Z,3.50
2022-09-01T04:41:32.134Z,4.50
2022-09-01T04:44:07.177Z,7.10
2022-09-01T04:46:42.459Z,6.20
2022-09-01T04:49:20.249Z,5.30
2022-09-01T04:51:54.779Z,4.60
2022-09-01T04:54:28.580Z,6.60
2022-09-01T04:57:01.783Z,6.20
2022-09-01T04:59:36.006Z,3.70
2022-09-01T05:02:09.722Z,5.30
2022-09-01T05:04:46.738Z,6.80
2022-09-01T05:07:19.195Z,8.90
2022-09-01T05:09:58.049Z,6.10
2022-09-01T05:12:33.029Z,7.30
2022-09-01T05:15:09.743Z,11.50
2022-09-01T05:17:43.063Z,4.80
2022-09-01T05:20:16.998Z,5.40
2022-09-01T05:22:50.184Z,9.90
2022-09-01T05:25:23.722Z,8.80
2022-09-01T05:27:58.131Z,8.20
2022-09-01T05:30:31.915Z,7.20
2022-09-01T05:33:06.262Z,7.20
2022-09-01T05:35:43.676Z,8.00
2022-09-01T05:38:16.267Z,8.70
2022-09-01T05:41:02.214Z,6.10
2022-09-01T05:43:34.927Z,5.10
2022-09-01T05:46:11.618Z,6.00
2022-09-01T05:48:44.724Z,8.30
2022-09-01T05:51:42.775Z,6.50
2022-09-01T05:54:14.593Z,6.60
2022-09-01T05:56:47.820Z,5.40
2022-09-01T05:59:23.389Z,7.20
2022-09-01T06:01:57.373Z,5.10
2022-09-01T06:04:31.153Z,11.60
2022-09-01T06:07:10.294Z,11.40
2022-09-01T06:09:49.143Z,9.60
2022-09-01T06:12:24.123Z,12.00
2022-09-01T06:14:58.319Z,10.50
2022-09-01T06:17:35.260Z,12.30
2022-09-01T06:20:12.315Z,10.30
2022-09-01T06:22:46.133Z,10.50
2022-09-01T06:25:18.831Z,9.70
2022-09-01T06:27:52.636Z,10.70
2022-09-01T06:30:26.961Z,12.00
2022-09-01T06:33:01.939Z,12.10
2022-09-01T06:35:35.541Z,14.30
2022-09-01T06:38:10.416Z,12.40
2022-09-01T06:40:45.868Z,14.30
2022-09-01T06:43:19.636Z,12.50
2022-09-01T06:45:55.056Z,10.10
2022-09-01T06:48:31.198Z,11.20
2022-09-01T06:51:20.210Z,9.60
2022-09-01T06:54:00.037Z,11.00
2022-09-01T06:56:37.117Z,9.90
2022-09-01T06:59:18.955Z,9.10
2022-09-01T07:02:01.417Z,9.30
2022-09-01T07:05:04.757Z,12.20
2022-09-01T07:08:28.161Z,14.00
2022-09-01T07:17:34.784Z,14.30
2022-09-01T07:20:23.465Z,11.90
2022-09-01T07:26:47.536Z,17.40
2022-09-01T07:32:44.102Z,17.50
2022-09-01T07:45:26.893Z,8.90
2022-09-01T07:52:15.936Z,4.90
2022-09-01T07:56:12.451Z,4.60
2022-09-01T07:58:54.885Z,5.10
2022-09-01T08:01:58.208Z,5.00
2022-09-01T08:04:57.862Z,3.30
2022-09-01T08:07:56.368Z,2.70
2022-09-01T08:16:53.749Z,1.70
2022-09-01T08:19:28.763Z,4.30
2022-09-01T08:22:10.644Z,2.00
2022-09-01T08:24:53.587Z,1.90
2022-09-01T08:27:59.795Z,2.10
2022-09-01T08:31:11.371Z,2.70
2022-09-01T08:41:35.016Z,1.80
2022-09-01T08:44:46.778Z,4.60
2022-09-01T08:47:32.429Z,8.70
2022-09-01T08:50:24.200Z,2.60
2022-09-01T08:53:13.572Z,3.90
2022-09-01T08:59:24.100Z,1.70
2022-09-01T09:02:14.985Z,4.00
2022-09-01T09:05:15.462Z,2.00
2022-09-01T09:11:48.466Z,3.90
2022-09-01T09:18:14.299Z,1.90
2022-09-01T09:24:21.764Z,5.30
2022-09-01T09:27:09.758Z,1.40
2022-09-01T09:29:45.457Z,2.20
2022-09-01T09:36:10.010Z,2.90
2022-09-01T09:39:07.318Z,1.40
2022-09-01T09:41:43.788Z,1.90
2022-09-01T09:45:06.245Z,1.60
2022-09-01T09:48:31.229Z,1.40
2022-09-01T09:51:29.054Z,2.10
2022-09-01T09:54:53.059Z,2.20
2022-09-01T10:00:36.135Z,2.00
2022-09-01T10:03:19.668Z,2.00
2022-09-01T10:05:56.418Z,1.80
2022-09-01T10:08:49.558Z,4.20
2022-09-01T10:11:52.138Z,1.80
2022-09-01T10:14:52.326Z,2.10
2022-09-01T10:17:27.529Z,1.60
2022-09-01T10:20:11.389Z,1.70
2022-09-01T10:23:15.232Z,1.10
2022-09-01T10:25:53.656Z,2.50
2022-09-01T10:28:34.058Z,2.10
2022-09-01T10:31:11.046Z,1.40
2022-09-01T10:33:49.052Z,1.60
2022-09-01T10:36:47.196Z,4.60
2022-09-01T10:40:43.293Z,4.20
2022-09-01T10:43:36.274Z,4.90
2022-09-01T10:46:50.532Z,2.10
2022-09-01T10:50:09.682Z,1.30
2022-09-01T10:53:08.124Z,2.80
2022-09-01T10:56:20.100Z,2.50
2022-09-01T10:59:40.272Z,1.40
2022-09-01T11:02:42.411Z,3.20
2022-09-01T11:05:25.151Z,3.00
2022-09-01T11:08:03.060Z,1.90
2022-09-01T11:11:26.019Z,1.20
2022-09-01T11:17:38.370Z,3.00
2022-09-01T11:20:13.917Z,3.60
2022-09-01T11:23:05.169Z,2.00
2022-09-01T11:29:56.917Z,2.10
2022-09-01T11:32:46.721Z,1.90
2022-09-01T11:35:53.248Z,2.10
2022-09-01T11:38:37.001Z,2.50
2022-09-01T11:41:24.205Z,1.70
2022-09-01T11:44:34.023Z,2.50
2022-09-01T11:47:18.002Z,2.30
2022-09-01T11:50:20.065Z,2.50
2022-09-01T11:53:05.752Z,1.50
2022-09-01T11:55:44.147Z,1.40
2022-09-01T11:58:43.190Z,3.00
2022-09-01T12:01:19.950Z,2.20
2022-09-01T12:03:55.053Z,3.20
2022-09-01T12:07:02.823Z,2.50
2022-09-01T12:09:44.490Z,5.30
2022-09-01T12:12:37.022Z,1.50
2022-09-01T12:15:25.364Z,1.00
2022-09-01T12:18:23.829Z,1.80
2022-09-01T12:21:03.687Z,1.40
2022-09-01T12:23:47.256Z,1.10
2022-09-01T12:26:33.705Z,1.50
2022-09-01T12:29:16.438Z,0.80
2022-09-01T12:31:53.005Z,1.30
2022-09-01T12:37:39.873Z,2.30
2022-09-01T12:44:01.842Z,2.10
2022-09-01T12:50:41.336Z,1.80
2022-09-01T12:53:27.911Z,1.10
2022-09-01T12:56:19.333Z,1.10
2022-09-01T13:02:31.631Z,2.60
2022-09-01T13:05:42.114Z,1.40
2022-09-01T13:08:40.768Z,1.80
2022-09-01T13:21:42.736Z,0.90
2022-09-01T13:24:28.493Z,1.00
2022-09-01T13:27:31.890Z,1.10
2022-09-01T13:30:12.789Z,1.00
2022-09-01T13:39:04.692Z,1.70
2022-09-01T13:42:04.679Z,1.10
2022-09-01T13:44:41.749Z,2.30
2022-09-01T13:48:19.294Z,1.50
2022-09-01T13:53:59.433Z,1.40
2022-09-01T13:56:42.061Z,2.00
2022-09-01T14:09:44.224Z,0.90
2022-09-01T14:13:09.408Z,2.30
2022-09-01T14:15:55.736Z,3.60
2022-09-01T14:18:36.890Z,1.80
2022-09-01T14:24:20.066Z,2.20
2022-09-01T14:27:24.146Z,2.00
2022-09-01T14:30:07.705Z,1.00
2022-09-01T14:32:55.732Z,1.50
2022-09-01T14:35:52.328Z,2.00
2022-09-01T14:39:16.741Z,1.20
2022-09-01T14:41:56.804Z,1.00
2022-09-01T14:44:56.063Z,1.00
2022-09-01T14:47:30.734Z,2.00
2022-09-01T14:50:54.937Z,0.90
2022-09-01T14:53:57.365Z,0.90
2022-09-01T15:03:51.143Z,3.20
2022-09-01T15:06:53.792Z,0.70
2022-09-01T15:09:32.661Z,1.90
2022-09-01T15:12:13.618Z,0.90
2022-09-01T15:14:53.954Z,1.50
2022-09-01T15:17:32.716Z,1.30
2022-09-01T15:20:32.930Z,2.90
2022-09-01T15:23:06.911Z,1.20
2022-09-01T15:25:42.993Z,1.70
2022-09-01T15:28:20.452Z,0.70
2022-09-01T15:31:03.669Z,0.80
2022-09-01T15:34:06.900Z,1.10
2022-09-01T15:36:47.464Z,2.30
2022-09-01T15:39:55.466Z,1.00
2022-09-01T15:42:38.793Z,0.90
2022-09-01T15:45:42.738Z,0.80
2022-09-01T15:51:42.012Z,1.30
2022-09-01T15:54:42.023Z,1.40
2022-09-01T15:57:23.541Z,0.90
2022-09-01T15:59:59.439Z,0.80
2022-09-01T16:02:34.557Z,3.80
2022-09-01T16:05:38.358Z,1.50
2022-09-01T16:08:39.585Z,1.70
2022-09-01T16:12:02.927Z,1.00
2022-09-01T16:14:43.212Z,1.20
2022-09-01T16:24:28.993Z,1.00
2022-09-01T16:27:04.667Z,4.20
2022-09-01T16:29:52.855Z,0.90
2022-09-01T16:32:56.251Z,0.90
2022-09-01T16:39:41.469Z,3.30
2022-09-01T16:42:58.037Z,1.00
2022-09-01T16:45:44.038Z,2.00
2022-09-01T16:48:32.572Z,2.70
2022-09-01T16:51:26.383Z,3.60
2022-09-01T16:54:59.365Z,1.20
2022-09-01T16:57:42.977Z,1.50
2022-09-01T17:07:33.699Z,2.60
2022-09-01T17:16:47.768Z,1.50
2022-09-01T17:19:23.396Z,2.30
2022-09-01T17:22:07.880Z,1.90
2022-09-01T17:24:50.927Z,1.90
2022-09-01T17:27:54.515Z,2.20
2022-09-01T17:30:33.696Z,3.80
2022-09-01T17:33:53.508Z,3.30
2022-09-01T17:39:57.020Z,5.80
2022-09-01T17:46:15.840Z,2.90
2022-09-01T17:49:02.426Z,4.40
2022-09-01T17:51:46.307Z,3.10
2022-09-01T17:54:50.402Z,4.70
2022-09-01T17:57:56.443Z,3.80
2022-09-01T18:00:41.113Z,2.30
2022-09-01T18:04:02.179Z,3.00
2022-09-01T18:07:05.368Z,4.80
2022-09-01T18:10:18.747Z,3.90
2022-09-01T18:16:56.667Z,4.70
2022-09-01T18:23:12.687Z,9.40
2022-09-01T18:29:18.459Z,3.30
2022-09-01T18:36:11.281Z,3.00
2022-09-01T18:39:18.914Z,3.00
2022-09-01T18:42:38.354Z,4.70
2022-09-01T18:45:26.343Z,3.60
2022-09-01T18:48:12.266Z,2.70
2022-09-01T18:51:08.001Z,4.80
2022-09-01T18:54:36.610Z,8.40
2022-09-01T18:58:01.041Z,4.40
2022-09-01T19:00:53.080Z,4.90
2022-09-01T19:06:52.857Z,5.20
2022-09-01T19:16:45.382Z,6.40
2022-09-01T19:19:50.600Z,4.10
2022-09-01T19:22:50.781Z,3.80
2022-09-01T19:25:39.948Z,4.00
2022-09-01T19:31:43.644Z,4.00
2022-09-01T19:34:49.101Z,4.00
2022-09-01T19:43:50.649Z,4.80
2022-09-01T19:46:43.211Z,4.50
2022-09-01T19:50:06.793Z,7.70
2022-09-01T19:53:14.997Z,3.00
2022-09-01T19:56:17.773Z,3.70
2022-09-01T19:59:24.482Z,4.60
2022-09-01T20:02:00.681Z,4.10
2022-09-01T20:07:59.177Z,3.30
2022-09-01T20:11:09.796Z,3.90
2022-09-01T20:14:36.940Z,3.90
2022-09-01T20:18:10.234Z,5.40
2022-09-01T20:24:58.273Z,5.10
2022-09-01T20:27:41.721Z,3.50
2022-09-01T20:33:57.426Z,3.90
2022-09-01T20:36:35.611Z,5.10
2022-09-01T20:40:24.412Z,4.60
2022-09-01T20:46:47.416Z,5.00
2022-09-01T20:49:21.373Z,3.80
2022-09-01T20:55:56.353Z,4.90
2022-09-01T21:02:13.481Z,3.80
2022-09-01T21:05:39.921Z,3.90
2022-09-01T21:08:50.002Z,3.40
2022-09-01T21:11:33.138Z,4.40
2022-09-01T21:14:37.244Z,3.70
2022-09-01T21:17:23.629Z,3.90
2022-09-01T21:23:52.805Z,4.60
2022-09-01T21:26:34.010Z,4.20
2022-09-01T21:32:30.601Z,4.90
2022-09-01T21:35:35.098Z,4.10
2022-09-01T21:38:32.459Z,5.70
2022-09-01T21:41:37.352Z,3.60
2022-09-01T21:44:35.304Z,4.30
2022-09-01T21:50:47.630Z,4.10
2022-09-01T21:54:08.130Z,3.90
2022-09-01T21:56:44.406Z,5.40
2022-09-01T21:59:19.634Z,3.50
2022-09-01T22:01:55.149Z,3.00
2022-09-01T22:04:33.483Z,3.20
2022-09-01T22:10:45.085Z,3.20
2022-09-01T22:13:46.251Z,3.60
2022-09-01T22:16:23.466Z,4.10
2022-09-01T22:19:02.791Z,2.70
2022-09-01T22:21:43.768Z,3.70
2022-09-01T22:24:25.857Z,3.50
2022-09-01T22:27:23.174Z,3.00
2022-09-01T22:30:21.208Z,3.20
2022-09-01T22:32:57.034Z,2.90
2022-09-01T22:35:33.798Z,3.90
2022-09-01T22:38:08.227Z,3.40
2022-09-01T22:41:09.379Z,4.60
2022-09-01T22:43:41.898Z,4.40
2022-09-01T22:46:16.387Z,4.20
2022-09-01T22:49:18.659Z,3.80
2022-09-01T22:51:53.987Z,3.70
2022-09-01T22:54:32.922Z,3.40
2022-09-01T22:57:30.366Z,4.00
2022-09-01T23:00:18.152Z,3.90
2022-09-01T23:03:23.169Z,4.60
2022-09-01T23:06:14.994Z,4.00
2022-09-01T23:09:14.598Z,5.70
2022-09-01T23:12:22.908Z,4.30
2022-09-01T23:15:00.595Z,4.80
2022-09-01T23:18:26.753Z,4.40
2022-09-01T23:21:41.775Z,5.20
2022-09-01T23:28:27.773Z,5.10
2022-09-01T23:31:06.267Z,5.40
2022-09-01T23:34:57.280Z,4.10
2022-09-01T23:38:25.390Z,3.90
2022-09-01T23:41:08.157Z,4.60
2022-09-01T23:43:44.530Z,4.00
2022-09-01T23:46:45.528Z,4.90
2022-09-01T23:49:47.841Z,3.90
2022-09-01T23:52:24.625Z,4.10
2022-09-01T23:55:23.011Z,3.50
2022-09-01T23:58:25.476Z,3.90
